Main page
METAR-TAF:

METAR-TAF

Airports :

Frontone, Italy

latitude: 43-31N, longitude: 012-44E, elevation: 570 m

Current weather observation

The report was made 55 minutes ago, at 00:55 UTC
Wind 5 kt from the West
Temperature 2°C
Humidity 93%
Pressure 1012 hPa
Visibility: 0200 m
fog

METAR: LIVF 200055Z 26005KT 0200 FG VV/// 02/01 Q1012 RMK MON INVIS VAL INVIS VIS MIN 0200

Time: 02:50 (01:50 UTC)


TAF: missing

Weather observations and forecasts of more than 4000 airports (METAR and TAF reports).

The available stations are represented by yellow and red dots on the map.

Hover mouse over dot to see the name of the station.

Then click to see weather observations and forecasts.

To change the map : click on the green buttons with a black cross to zoom in, on the green button with a dash to zoom out, or on the green arrows for adjacent maps.


METAR-TAF: